createdAt,value
2017-08-13T00:00:13.315Z,14.42
2017-08-13T00:01:13.244Z,14.31
2017-08-13T00:02:13.222Z,14.39
2017-08-13T00:03:13.193Z,14.29
2017-08-13T00:04:13.175Z,14.35
2017-08-13T00:05:12.855Z,14.24
2017-08-13T00:06:13.134Z,14.34
2017-08-13T00:07:13.117Z,14.3
2017-08-13T00:08:13.111Z,14.3
2017-08-13T00:09:13.066Z,14.34
2017-08-13T00:10:13.043Z,14.3
2017-08-13T00:11:12.781Z,14.29
2017-08-13T00:12:12.705Z,14.19
2017-08-13T00:13:12.978Z,14.35
2017-08-13T00:14:12.970Z,14.26
2017-08-13T00:15:12.942Z,14.2
2017-08-13T00:16:12.923Z,14.23
2017-08-13T00:17:12.597Z,14.21
2017-08-13T00:18:12.904Z,14.23
2017-08-13T00:19:12.853Z,14.26
2017-08-13T00:20:12.834Z,14.24
2017-08-13T00:21:12.812Z,14.2
2017-08-13T00:22:12.790Z,14.24
2017-08-13T00:23:12.770Z,14.27
2017-08-13T00:24:12.744Z,14.27
2017-08-13T00:25:12.772Z,14.29
2017-08-13T00:26:12.410Z,14.29
2017-08-13T00:27:12.727Z,14.29
2017-08-13T00:28:12.655Z,14.27
2017-08-13T00:29:12.640Z,14.3
2017-08-13T00:30:12.615Z,14.27
2017-08-13T00:31:12.647Z,14.3
2017-08-13T00:32:12.579Z,14.17
2017-08-13T00:33:12.558Z,14.21
2017-08-13T00:34:12.528Z,14.29
2017-08-13T00:35:12.507Z,14.29
2017-08-13T00:36:12.485Z,14.29
2017-08-13T00:37:12.174Z,14.29
2017-08-13T00:38:12.458Z,14.29
2017-08-13T00:39:12.174Z,14.29
2017-08-13T00:40:12.396Z,14.31
2017-08-13T00:41:12.377Z,14.31
2017-08-13T00:42:12.354Z,14.31
2017-08-13T00:43:12.339Z,14.29
2017-08-13T00:44:12.310Z,14.29
2017-08-13T00:45:12.339Z,14.27
2017-08-13T00:46:12.272Z,14.26
2017-08-13T00:47:12.245Z,14.31
2017-08-13T00:48:12.220Z,14.31
2017-08-13T00:49:11.904Z,14.3
2017-08-13T00:50:12.176Z,14.29
2017-08-13T00:51:12.157Z,14.31
2017-08-13T00:52:12.144Z,14.29
2017-08-13T00:53:12.118Z,14.29
2017-08-13T00:54:12.100Z,14.3
2017-08-13T00:55:12.074Z,14.27
2017-08-13T00:56:12.069Z,14.24
2017-08-13T00:57:12.078Z,14.2
2017-08-13T00:58:12.007Z,14.19
2017-08-13T00:59:12.001Z,14.21
2017-08-13T01:00:12.220Z,14.17
2017-08-13T01:01:11.641Z,14.11
2017-08-13T01:02:11.924Z,14.24
2017-08-13T01:03:11.906Z,14.17
2017-08-13T01:04:11.877Z,14.12
2017-08-13T01:05:11.861Z,14.13
2017-08-13T01:06:11.835Z,14.24
2017-08-13T01:07:11.816Z,14.16
2017-08-13T01:08:11.793Z,14.19
2017-08-13T01:09:11.771Z,14.08
2017-08-13T01:10:11.742Z,14.11
2017-08-13T01:11:11.730Z,14.11
2017-08-13T01:12:11.702Z,14.16
2017-08-13T01:13:11.381Z,14.12
2017-08-13T01:14:11.665Z,14.06
2017-08-13T01:15:11.648Z,14.05
2017-08-13T01:16:11.615Z,13.98
2017-08-13T01:17:11.642Z,14.04
2017-08-13T01:18:11.577Z,14.05
2017-08-13T01:19:11.547Z,13.99
2017-08-13T01:20:11.530Z,13.99
2017-08-13T01:21:11.508Z,14.04
2017-08-13T01:22:11.484Z,14.01
2017-08-13T01:23:11.460Z,13.96
2017-08-13T01:24:11.492Z,14.02
2017-08-13T01:25:11.438Z,13.98
2017-08-13T01:26:11.100Z,14.04
2017-08-13T01:27:11.375Z,13.98
2017-08-13T01:28:11.361Z,14.04
2017-08-13T01:29:11.341Z,14.05
2017-08-13T01:30:11.010Z,14.08
2017-08-13T01:31:11.297Z,14.05
2017-08-13T01:32:11.275Z,14.05
2017-08-13T01:33:11.270Z,14.04
2017-08-13T01:34:11.231Z,14.05
2017-08-13T01:35:11.211Z,14.02
2017-08-13T01:36:11.187Z,14.05
2017-08-13T01:37:11.167Z,13.99
2017-08-13T01:38:11.142Z,14.02
2017-08-13T01:39:10.815Z,13.98
2017-08-13T01:40:11.099Z,14.04
2017-08-13T01:41:11.118Z,14.05
2017-08-13T01:42:11.052Z,14.05
2017-08-13T01:43:11.028Z,14.09
2017-08-13T01:44:11.003Z,14.21
2017-08-13T01:45:10.985Z,14.13
2017-08-13T01:46:10.970Z,14.12
2017-08-13T01:47:10.947Z,14.2
2017-08-13T01:48:10.927Z,14.2
2017-08-13T01:49:10.903Z,14.16
2017-08-13T01:50:11.185Z,14.24
2017-08-13T01:51:10.865Z,14.17
2017-08-13T01:52:10.835Z,14.2
2017-08-13T01:53:10.526Z,14.23
2017-08-13T01:54:10.793Z,14.24
2017-08-13T01:55:10.784Z,14.24
2017-08-13T01:56:10.752Z,14.24
2017-08-13T01:57:10.725Z,14.23
2017-08-13T01:58:10.704Z,14.19
2017-08-13T01:59:10.690Z,14.27
2017-08-13T02:00:10.667Z,14.23
2017-08-13T02:01:10.648Z,14.17
2017-08-13T02:02:10.669Z,14.31
2017-08-13T02:03:10.605Z,14.24
2017-08-13T02:04:10.573Z,14.27
2017-08-13T02:05:10.603Z,14.26
2017-08-13T02:06:10.526Z,14.29
2017-08-13T02:07:10.259Z,14.31
2017-08-13T02:08:10.489Z,14.31
2017-08-13T02:09:10.460Z,14.29
2017-08-13T02:10:10.441Z,14.3
2017-08-13T02:11:10.424Z,14.31
2017-08-13T02:12:10.397Z,14.27
2017-08-13T02:13:10.378Z,14.34
2017-08-13T02:14:10.064Z,14.29
2017-08-13T02:15:10.338Z,14.29
2017-08-13T02:16:10.322Z,14.3
2017-08-13T02:17:10.297Z,14.26
2017-08-13T02:18:10.522Z,14.26
2017-08-13T02:19:10.250Z,14.31
2017-08-13T02:20:10.231Z,14.27
2017-08-13T02:21:09.918Z,14.34
2017-08-13T02:22:09.886Z,14.27
2017-08-13T02:23:10.159Z,14.27
2017-08-13T02:24:10.147Z,14.31
2017-08-13T02:25:10.123Z,14.26
2017-08-13T02:26:10.099Z,14.23
2017-08-13T02:27:10.133Z,14.3
2017-08-13T02:28:10.053Z,14.27
2017-08-13T02:29:10.040Z,14.29
2017-08-13T02:30:09.711Z,14.27
2017-08-13T02:31:09.989Z,14.29
2017-08-13T02:32:09.974Z,14.26
2017-08-13T02:33:09.950Z,14.24
2017-08-13T02:34:09.978Z,14.24
2017-08-13T02:35:09.917Z,14.23
2017-08-13T02:36:09.895Z,14.26
2017-08-13T02:37:09.858Z,14.19
2017-08-13T02:38:09.841Z,14.27
2017-08-13T02:39:09.520Z,14.2
2017-08-13T02:40:09.802Z,14.23
2017-08-13T02:41:09.877Z,14.24
2017-08-13T02:42:09.756Z,14.2
2017-08-13T02:43:09.735Z,14.21
2017-08-13T02:44:09.707Z,14.23
2017-08-13T02:45:09.690Z,14.3
2017-08-13T02:46:09.773Z,14.21
2017-08-13T02:47:09.644Z,14.21
2017-08-13T02:48:09.625Z,14.27
2017-08-13T02:49:09.604Z,14.24
2017-08-13T02:50:09.584Z,14.16
2017-08-13T02:51:09.563Z,14.2
2017-08-13T02:52:09.542Z,14.19
2017-08-13T02:53:09.517Z,14.17
2017-08-13T02:54:09.497Z,14.19
2017-08-13T02:55:09.480Z,14.24
2017-08-13T02:56:09.451Z,14.23
2017-08-13T02:57:09.426Z,14.23
2017-08-13T02:58:09.477Z,14.19
2017-08-13T02:59:09.396Z,14.19
2017-08-13T03:00:09.358Z,14.11
2017-08-13T03:01:09.045Z,14.09
2017-08-13T03:02:09.036Z,14.12
2017-08-13T03:03:09.301Z,14.01
2017-08-13T03:04:09.277Z,14.05
2017-08-13T03:05:09.276Z,13.99
2017-08-13T03:06:09.238Z,13.98
2017-08-13T03:07:09.221Z,13.98
2017-08-13T03:08:09.188Z,13.94
2017-08-13T03:09:09.175Z,13.9
2017-08-13T03:10:09.152Z,13.96
2017-08-13T03:11:09.125Z,13.99
2017-08-13T03:12:08.807Z,13.88
2017-08-13T03:13:09.330Z,13.9
2017-08-13T03:14:09.065Z,13.84
2017-08-13T03:15:09.042Z,13.73
2017-08-13T03:16:08.733Z,13.81
2017-08-13T03:17:08.991Z,13.72
2017-08-13T03:18:08.971Z,13.8
2017-08-13T03:19:08.959Z,13.69
2017-08-13T03:20:08.982Z,13.69
2017-08-13T03:21:08.908Z,13.62
2017-08-13T03:22:08.888Z,13.65
2017-08-13T03:23:08.868Z,13.69
2017-08-13T03:24:08.851Z,13.61
2017-08-13T03:25:08.822Z,13.68
2017-08-13T03:26:08.811Z,13.61
2017-08-13T03:27:08.780Z,13.62
2017-08-13T03:28:08.762Z,13.62
2017-08-13T03:29:08.741Z,13.65
2017-08-13T03:30:08.777Z,13.66
2017-08-13T03:31:08.712Z,13.62
2017-08-13T03:32:08.672Z,13.62
2017-08-13T03:33:08.648Z,13.46
2017-08-13T03:34:08.631Z,13.51
2017-08-13T03:35:08.601Z,13.47
2017-08-13T03:36:08.584Z,13.48
2017-08-13T03:37:08.257Z,13.48
2017-08-13T03:38:08.542Z,13.47
2017-08-13T03:39:08.513Z,13.47
2017-08-13T03:40:08.197Z,13.44
2017-08-13T03:41:08.479Z,13.46
2017-08-13T03:42:08.449Z,13.39
2017-08-13T03:43:08.427Z,13.44
2017-08-13T03:44:08.405Z,13.47
2017-08-13T03:45:08.389Z,13.36
2017-08-13T03:46:08.366Z,13.36
2017-08-13T03:47:08.345Z,13.41
2017-08-13T03:48:08.038Z,13.29
2017-08-13T03:49:08.299Z,13.35
2017-08-13T03:50:08.283Z,13.31
2017-08-13T03:51:08.256Z,13.28
2017-08-13T03:52:08.233Z,13.28
2017-08-13T03:53:08.218Z,13.31
2017-08-13T03:54:07.904Z,13.25
2017-08-13T03:55:08.163Z,13.22
2017-08-13T03:56:08.146Z,13.28
2017-08-13T03:57:08.124Z,13.16
2017-08-13T03:58:08.095Z,13.13
2017-08-13T03:59:08.084Z,13.14
2017-08-13T04:00:08.056Z,13.16
2017-08-13T04:01:08.034Z,13.13
2017-08-13T04:02:08.014Z,13.13
2017-08-13T04:03:07.989Z,13.13
2017-08-13T04:04:07.971Z,13.07
2017-08-13T04:05:07.946Z,13.04
2017-08-13T04:06:07.630Z,13.12
2017-08-13T04:07:07.899Z,13.12
2017-08-13T04:08:07.880Z,13.14
2017-08-13T04:09:07.857Z,13.14
2017-08-13T04:10:07.841Z,13.1
2017-08-13T04:11:07.809Z,13.14
2017-08-13T04:12:07.789Z,13.04
2017-08-13T04:13:07.773Z,13.13
2017-08-13T04:14:07.746Z,13.07
2017-08-13T04:15:07.729Z,12.99
2017-08-13T04:16:07.704Z,13.06
2017-08-13T04:17:07.685Z,13.1
2017-08-13T04:18:07.657Z,13.03
2017-08-13T04:19:07.644Z,13.03
2017-08-13T04:20:07.623Z,13.01
2017-08-13T04:21:07.594Z,13.06
2017-08-13T04:22:07.566Z,13.03
2017-08-13T04:23:07.559Z,13.03
2017-08-13T04:24:07.536Z,13.1
2017-08-13T04:25:07.502Z,13.07
2017-08-13T04:26:07.491Z,13.06
2017-08-13T04:27:07.468Z,13.07
2017-08-13T04:28:07.440Z,12.99
2017-08-13T04:29:07.415Z,13.16
2017-08-13T04:30:07.421Z,13.01
2017-08-13T04:31:07.390Z,13.12
2017-08-13T04:32:07.352Z,13.13
2017-08-13T04:33:07.327Z,13.14
2017-08-13T04:34:07.312Z,13.14
2017-08-13T04:35:07.285Z,13.07
2017-08-13T04:36:07.265Z,13.17
2017-08-13T04:37:07.246Z,13.22
2017-08-13T04:38:07.466Z,13.31
2017-08-13T04:39:07.198Z,13.36
2017-08-13T04:40:07.179Z,13.47
2017-08-13T04:41:07.155Z,13.5
2017-08-13T04:42:07.136Z,13.68
2017-08-13T04:43:06.805Z,13.73
2017-08-13T04:44:07.097Z,13.71
2017-08-13T04:45:07.070Z,13.93
2017-08-13T04:46:07.047Z,13.98
2017-08-13T04:47:07.028Z,14.06
2017-08-13T04:48:07.003Z,14.12
2017-08-13T04:49:07.032Z,14.11
2017-08-13T04:50:06.969Z,14.29
2017-08-13T04:51:06.937Z,14.35
2017-08-13T04:52:06.928Z,14.46
2017-08-13T04:53:06.590Z,14.54
2017-08-13T04:54:06.871Z,14.52
2017-08-13T04:55:06.852Z,14.59
2017-08-13T04:56:06.830Z,14.72
2017-08-13T04:57:06.806Z,14.8
2017-08-13T04:58:06.792Z,14.79
2017-08-13T04:59:06.772Z,15.01
2017-08-13T05:00:06.748Z,15.05
2017-08-13T05:01:06.729Z,15.13
2017-08-13T05:02:06.714Z,15.09
2017-08-13T05:03:06.685Z,15.15
2017-08-13T05:04:06.664Z,15.3
2017-08-13T05:05:06.640Z,15.41
2017-08-13T05:06:06.626Z,15.55
2017-08-13T05:07:06.613Z,15.67
2017-08-13T05:08:06.592Z,15.78
2017-08-13T05:09:06.816Z,15.92
2017-08-13T05:10:06.548Z,15.93
2017-08-13T05:11:06.517Z,15.92
2017-08-13T05:12:06.503Z,15.96
2017-08-13T05:13:06.188Z,16.08
2017-08-13T05:14:06.457Z,16.22
2017-08-13T05:15:06.490Z,16.33
2017-08-13T05:16:06.415Z,16.29
2017-08-13T05:17:06.401Z,16.44
2017-08-13T05:18:06.382Z,16.59
2017-08-13T05:19:06.363Z,16.59
2017-08-13T05:20:06.340Z,16.63
2017-08-13T05:21:06.322Z,16.85
2017-08-13T05:22:06.298Z,16.85
2017-08-13T05:23:06.293Z,16.9
2017-08-13T05:24:06.267Z,16.88
2017-08-13T05:25:06.254Z,16.9
2017-08-13T05:26:06.220Z,16.95
2017-08-13T05:27:06.195Z,16.88
2017-08-13T05:28:05.878Z,16.96
2017-08-13T05:29:06.164Z,16.9
2017-08-13T05:30:06.191Z,17.02
2017-08-13T05:31:05.819Z,17.27
2017-08-13T05:32:05.815Z,17.39
2017-08-13T05:33:06.088Z,17.62
2017-08-13T05:34:06.067Z,17.76
2017-08-13T05:35:06.045Z,17.98
2017-08-13T05:36:06.030Z,18.1
2017-08-13T05:37:06.009Z,18.11
2017-08-13T05:38:05.993Z,18.29
2017-08-13T05:39:05.970Z,18.36
2017-08-13T05:40:05.948Z,18.38
2017-08-13T05:41:05.334Z,18.35
2017-08-13T05:42:05.923Z,18.44
2017-08-13T05:43:05.904Z,18.54
2017-08-13T05:44:05.878Z,18.6
2017-08-13T05:45:05.863Z,18.74
2017-08-13T05:46:05.890Z,18.82
2017-08-13T05:47:05.531Z,18.94
2017-08-13T05:48:05.804Z,19.28
2017-08-13T05:49:05.792Z,19.25
2017-08-13T05:50:05.775Z,19.49
2017-08-13T05:51:05.755Z,19.5
2017-08-13T05:52:05.745Z,19.43
2017-08-13T05:53:05.721Z,19.6
2017-08-13T05:54:05.710Z,19.78
2017-08-13T05:55:05.681Z,19.71
2017-08-13T05:56:05.662Z,19.79
2017-08-13T05:57:05.354Z,19.82
2017-08-13T05:58:05.640Z,19.92
2017-08-13T05:59:05.616Z,19.92
2017-08-13T06:00:05.600Z,19.78
2017-08-13T06:01:05.580Z,19.68
2017-08-13T06:02:05.567Z,19.67
2017-08-13T06:03:05.549Z,19.6
2017-08-13T06:04:05.536Z,19.57
2017-08-13T06:05:05.515Z,19.65
2017-08-13T06:06:05.506Z,19.67
2017-08-13T06:07:05.490Z,19.71
2017-08-13T06:08:05.470Z,19.94
2017-08-13T06:09:05.148Z,20.1
2017-08-13T06:10:05.434Z,20.2
2017-08-13T06:11:05.422Z,20.2
2017-08-13T06:12:05.402Z,20.17
2017-08-13T06:13:05.085Z,20.22
2017-08-13T06:14:05.370Z,20.23
2017-08-13T06:15:05.353Z,20.17
2017-08-13T06:16:05.034Z,20.13
2017-08-13T06:17:05.330Z,20.27
2017-08-13T06:18:05.307Z,20.37
2017-08-13T06:19:05.292Z,20.31
2017-08-13T06:20:05.280Z,20.48
2017-08-13T06:21:05.272Z,20.46
2017-08-13T06:22:05.249Z,20.46
2017-08-13T06:23:05.227Z,20.5
2017-08-13T06:24:05.216Z,20.51
2017-08-13T06:25:05.223Z,20.72
2017-08-13T06:26:05.188Z,20.91
2017-08-13T06:27:05.176Z,20.82
2017-08-13T06:28:05.155Z,20.93
2017-08-13T06:29:05.151Z,20.88
2017-08-13T06:30:05.130Z,20.83
2017-08-13T06:31:05.123Z,21.05
2017-08-13T06:32:05.097Z,21.16
2017-08-13T06:33:05.091Z,21.13
2017-08-13T06:34:05.068Z,21.26
2017-08-13T06:35:05.057Z,21.31
2017-08-13T06:36:05.297Z,21.19
2017-08-13T06:37:05.029Z,21.18
2017-08-13T06:38:05.030Z,21.26
2017-08-13T06:39:04.699Z,21.24
2017-08-13T06:40:04.984Z,21.16
2017-08-13T06:41:04.974Z,21.13
2017-08-13T06:42:04.964Z,21.11
2017-08-13T06:43:04.940Z,21.11
2017-08-13T06:44:04.938Z,21.31
2017-08-13T06:45:04.915Z,21.53
2017-08-13T06:46:04.904Z,21.55
2017-08-13T06:47:04.893Z,21.58
2017-08-13T06:48:04.935Z,21.63
2017-08-13T06:49:04.858Z,21.7
2017-08-13T06:50:04.849Z,21.77
2017-08-13T06:51:04.833Z,21.77
2017-08-13T06:52:04.828Z,21.82
2017-08-13T06:53:04.517Z,21.82
2017-08-13T06:54:04.795Z,21.9
2017-08-13T06:55:04.784Z,22.04
2017-08-13T06:56:04.765Z,22.21
2017-08-13T06:57:05.008Z,22.24
2017-08-13T06:58:04.747Z,22.31
2017-08-13T06:59:04.730Z,22.38
2017-08-13T07:00:04.723Z,22.24
2017-08-13T07:01:04.715Z,22.14
2017-08-13T07:02:04.696Z,22.2
2017-08-13T07:03:04.683Z,22.3
2017-08-13T07:04:04.662Z,22.23
2017-08-13T07:05:04.661Z,22.17
2017-08-13T07:06:04.647Z,22.11
2017-08-13T07:07:04.632Z,22.06
2017-08-13T07:08:04.627Z,22.14
2017-08-13T07:09:04.610Z,22.19
2017-08-13T07:10:04.605Z,22.29
2017-08-13T07:11:04.569Z,22.38
2017-08-13T07:12:04.618Z,22.46
2017-08-13T07:13:04.554Z,22.45
2017-08-13T07:14:04.245Z,22.44
2017-08-13T07:15:04.530Z,22.67
2017-08-13T07:16:04.520Z,22.85
2017-08-13T07:17:04.527Z,23.11
2017-08-13T07:18:04.745Z,23.12
2017-08-13T07:19:04.493Z,23.12
2017-08-13T07:20:04.482Z,23.16
2017-08-13T07:21:04.475Z,23.14
2017-08-13T07:22:04.458Z,23.12
2017-08-13T07:23:04.148Z,23.18
2017-08-13T07:24:04.135Z,23.38
2017-08-13T07:25:04.665Z,23.45
2017-08-13T07:26:04.417Z,23.42
2017-08-13T07:27:04.396Z,23.35
2017-08-13T07:28:04.395Z,23.23
2017-08-13T07:29:04.376Z,23.34
2017-08-13T07:30:04.366Z,23.31
2017-08-13T07:31:03.807Z,23.18
2017-08-13T07:32:04.340Z,23.35
2017-08-13T07:33:04.397Z,23.45
2017-08-13T07:34:04.331Z,23.59
2017-08-13T07:35:04.308Z,23.34
2017-08-13T07:36:04.296Z,23.07
2017-08-13T07:37:04.292Z,23.07
2017-08-13T07:38:03.986Z,23.09
2017-08-13T07:39:04.267Z,22.85
2017-08-13T07:40:04.310Z,22.89
2017-08-13T07:41:04.246Z,22.96
2017-08-13T07:42:03.937Z,23.16
2017-08-13T07:43:04.230Z,23.21
2017-08-13T07:44:04.215Z,23.22
2017-08-13T07:45:04.204Z,23.09
2017-08-13T07:46:04.197Z,22.88
2017-08-13T07:47:04.182Z,22.82
2017-08-13T07:48:04.177Z,22.76
2017-08-13T07:49:03.867Z,22.96
2017-08-13T07:50:04.148Z,23.21
2017-08-13T07:51:04.159Z,23.57
2017-08-13T07:52:04.125Z,24.09
2017-08-13T07:53:04.113Z,24.48
2017-08-13T07:54:04.116Z,24.9
2017-08-13T07:55:04.092Z,25.24
2017-08-13T07:56:03.786Z,25.6
2017-08-13T07:57:04.069Z,25.91
2017-08-13T07:58:04.064Z,26.23
2017-08-13T07:59:04.055Z,26.54
2017-08-13T08:00:04.047Z,26.64
2017-08-13T08:01:04.038Z,26.87
2017-08-13T08:02:04.031Z,27.08
2017-08-13T08:03:03.761Z,27.09
2017-08-13T08:04:04.003Z,27.08
2017-08-13T08:05:03.693Z,27.24
2017-08-13T08:06:03.984Z,27.49
2017-08-13T08:07:04.041Z,27.62
2017-08-13T08:08:03.969Z,27.83
2017-08-13T08:09:03.657Z,28.09
2017-08-13T08:10:03.956Z,28.3
2017-08-13T08:11:03.966Z,28.14
2017-08-13T08:12:03.949Z,28.32
2017-08-13T08:13:03.934Z,28.52
2017-08-13T08:14:03.921Z,28.45
2017-08-13T08:15:03.906Z,28.32
2017-08-13T08:16:03.904Z,28.36
2017-08-13T08:17:03.891Z,28.38
2017-08-13T08:18:03.899Z,28.27
2017-08-13T08:19:03.927Z,28.48
2017-08-13T08:20:03.872Z,28.61
2017-08-13T08:21:03.863Z,28.76
2017-08-13T08:22:03.855Z,28.94
2017-08-13T08:23:03.853Z,28.94
2017-08-13T08:24:03.848Z,29.1
2017-08-13T08:25:03.836Z,29.21
2017-08-13T08:26:03.823Z,29.27
2017-08-13T08:27:03.822Z,29.1
2017-08-13T08:28:03.816Z,28.91
2017-08-13T08:29:03.804Z,28.82
2017-08-13T08:30:03.803Z,28.65
2017-08-13T08:31:03.890Z,28.72
2017-08-13T08:32:03.783Z,29.07
2017-08-13T08:33:03.474Z,29.3
2017-08-13T08:34:03.771Z,29.41
2017-08-13T08:35:03.768Z,29.12
2017-08-13T08:36:03.756Z,28.35
2017-08-13T08:37:03.745Z,27.98
2017-08-13T08:38:03.739Z,28.03
2017-08-13T08:39:03.728Z,27.86
2017-08-13T08:40:03.745Z,27.65
2017-08-13T08:41:03.772Z,27.35
2017-08-13T08:42:03.763Z,27.33
2017-08-13T08:43:03.749Z,27.61
2017-08-13T08:44:03.754Z,27.77
2017-08-13T08:45:03.689Z,27.95
2017-08-13T08:46:03.685Z,28.08
2017-08-13T08:47:03.365Z,28.4
2017-08-13T08:48:03.707Z,28.65
2017-08-13T08:49:03.347Z,28.95
2017-08-13T08:50:03.343Z,28.95
2017-08-13T08:51:03.631Z,28.88
2017-08-13T08:52:03.672Z,28.87
2017-08-13T08:53:03.313Z,28.97
2017-08-13T08:54:03.616Z,29.12
2017-08-13T08:55:03.604Z,29.54
2017-08-13T08:56:03.597Z,29.58
2017-08-13T08:57:03.586Z,29.63
2017-08-13T08:58:03.589Z,29.73
2017-08-13T08:59:03.579Z,29.92
2017-08-13T09:00:03.620Z,30.1
2017-08-13T09:01:03.556Z,30.11
2017-08-13T09:02:03.560Z,30.03
2017-08-13T09:03:03.257Z,29.99
2017-08-13T09:04:03.548Z,30.01
2017-08-13T09:05:03.541Z,30.25
2017-08-13T09:06:03.536Z,30.36
2017-08-13T09:07:03.218Z,30.53
2017-08-13T09:08:03.519Z,30.56
2017-08-13T09:09:03.529Z,30.48
2017-08-13T09:10:03.498Z,30.32
2017-08-13T09:11:02.898Z,30.38
2017-08-13T09:12:03.496Z,30.23
2017-08-13T09:13:03.494Z,30.01
2017-08-13T09:14:03.482Z,30.03
2017-08-13T09:15:03.478Z,30
2017-08-13T09:16:03.472Z,29.92
2017-08-13T09:17:03.479Z,29.66
2017-08-13T09:18:03.530Z,29.52
2017-08-13T09:19:03.462Z,29.55
2017-08-13T09:20:03.452Z,29.58
2017-08-13T09:21:03.142Z,29.62
2017-08-13T09:22:03.432Z,29.49
2017-08-13T09:23:03.486Z,29.58
2017-08-13T09:24:03.134Z,29.67
2017-08-13T09:25:03.461Z,29.69
2017-08-13T09:26:03.404Z,29.73
2017-08-13T09:27:03.405Z,29.64
2017-08-13T09:28:03.395Z,29.63
2017-08-13T09:29:03.385Z,29.6
2017-08-13T09:30:03.385Z,29.67
2017-08-13T09:31:03.073Z,29.88
2017-08-13T09:32:03.364Z,29.97
2017-08-13T09:33:03.382Z,29.99
2017-08-13T09:34:03.364Z,30.07
2017-08-13T09:35:03.097Z,30.13
2017-08-13T09:36:03.340Z,30.11
2017-08-13T09:37:03.337Z,30
2017-08-13T09:38:03.332Z,29.58
2017-08-13T09:39:03.325Z,29.52
2017-08-13T09:40:03.322Z,29.51
2017-08-13T09:41:03.313Z,29.76
2017-08-13T09:42:03.313Z,30.03
2017-08-13T09:43:03.301Z,30.11
2017-08-13T09:44:02.997Z,30.11
2017-08-13T09:45:03.289Z,30.1
2017-08-13T09:46:03.283Z,30.21
2017-08-13T09:47:02.972Z,30.15
2017-08-13T09:48:03.273Z,30.32
2017-08-13T09:49:03.263Z,30.36
2017-08-13T09:50:03.261Z,30.34
2017-08-13T09:51:03.257Z,30.04
2017-08-13T09:52:03.247Z,29.95
2017-08-13T09:53:03.244Z,30.18
2017-08-13T09:54:03.233Z,30.45
2017-08-13T09:55:03.230Z,30.44
2017-08-13T09:56:03.229Z,30.21
2017-08-13T09:57:03.224Z,29.99
2017-08-13T09:58:03.245Z,29.73
2017-08-13T09:59:02.901Z,29.62
2017-08-13T10:00:03.188Z,29.74
2017-08-13T10:01:02.891Z,29.54
2017-08-13T10:02:03.235Z,29.55
2017-08-13T10:03:03.198Z,29.55
2017-08-13T10:04:03.180Z,29.58
2017-08-13T10:05:02.876Z,29.71
2017-08-13T10:06:03.162Z,29.92
2017-08-13T10:07:03.155Z,29.95
2017-08-13T10:08:03.146Z,30.06
2017-08-13T10:09:03.343Z,30.03
2017-08-13T10:10:03.134Z,30.01
2017-08-13T10:11:03.130Z,30.04
2017-08-13T10:12:03.129Z,30.03
2017-08-13T10:13:03.140Z,30.03
2017-08-13T10:14:03.110Z,30.08
2017-08-13T10:15:03.116Z,30.07
2017-08-13T10:16:03.126Z,30.11
2017-08-13T10:17:03.095Z,30.01
2017-08-13T10:18:03.092Z,30.04
2017-08-13T10:19:03.081Z,29.79
2017-08-13T10:20:03.076Z,29.81
2017-08-13T10:21:03.066Z,29.7
2017-08-13T10:22:03.123Z,29.6
2017-08-13T10:23:03.056Z,29.66
2017-08-13T10:24:03.061Z,29.71
2017-08-13T10:25:03.041Z,29.48
2017-08-13T10:26:03.048Z,29.18
2017-08-13T10:27:03.035Z,28.5
2017-08-13T10:28:03.026Z,28.2
2017-08-13T10:29:03.044Z,27.91
2017-08-13T10:30:03.010Z,27.96
2017-08-13T10:31:03.007Z,28.09
2017-08-13T10:32:02.995Z,28.27
2017-08-13T10:33:02.989Z,28.58
2017-08-13T10:34:02.986Z,28.61
2017-08-13T10:35:02.976Z,28.79
2017-08-13T10:36:02.986Z,28.87
2017-08-13T10:37:02.956Z,28.39
2017-08-13T10:38:02.960Z,27.87
2017-08-13T10:39:02.951Z,27.46
2017-08-13T10:40:02.945Z,27.13
2017-08-13T10:41:03.262Z,26.5
2017-08-13T10:42:02.919Z,25.94
2017-08-13T10:43:02.918Z,25.61
2017-08-13T10:44:02.914Z,25.27
2017-08-13T10:45:02.895Z,24.97
2017-08-13T10:46:02.879Z,24.74
2017-08-13T10:47:02.877Z,24.33
2017-08-13T10:48:02.918Z,24.11
2017-08-13T10:49:02.870Z,23.81
2017-08-13T10:50:02.851Z,23.68
2017-08-13T10:51:02.836Z,23.44
2017-08-13T10:52:02.820Z,23.38
2017-08-13T10:53:02.818Z,23.18
2017-08-13T10:54:02.486Z,23.06
2017-08-13T10:55:02.772Z,22.99
2017-08-13T10:56:02.754Z,22.79
2017-08-13T10:57:02.765Z,22.81
2017-08-13T10:58:02.741Z,22.7
2017-08-13T10:59:17.549Z,22.54
2017-08-13T11:00:02.697Z,22.46
2017-08-13T11:01:02.686Z,22.21
2017-08-13T11:02:02.670Z,22.04
2017-08-13T11:03:02.657Z,21.94
2017-08-13T11:04:02.337Z,21.83
2017-08-13T11:05:02.653Z,21.68
2017-08-13T11:06:02.860Z,21.59
2017-08-13T11:07:02.594Z,21.53
2017-08-13T11:08:02.587Z,21.43
2017-08-13T11:09:02.552Z,21.42
2017-08-13T11:10:02.239Z,21.34
2017-08-13T11:11:02.519Z,21.38
2017-08-13T11:12:02.510Z,21.4
2017-08-13T11:13:02.541Z,21.42
2017-08-13T11:14:02.474Z,21.53
2017-08-13T11:15:02.192Z,21.56
2017-08-13T11:16:02.150Z,21.55
2017-08-13T11:17:02.432Z,21.66
2017-08-13T11:18:02.429Z,21.7
2017-08-13T11:19:02.388Z,21.73
2017-08-13T11:20:02.365Z,21.71
2017-08-13T11:21:02.052Z,21.7
2017-08-13T11:22:02.342Z,21.85
2017-08-13T11:23:02.318Z,21.82
2017-08-13T11:24:02.302Z,21.99
2017-08-13T11:25:02.283Z,21.99
2017-08-13T11:26:02.273Z,22.11
2017-08-13T11:27:02.259Z,22.21
2017-08-13T11:28:02.240Z,22.36
2017-08-13T11:29:01.930Z,22.44
2017-08-13T11:30:02.203Z,22.57
2017-08-13T11:31:02.249Z,22.7
2017-08-13T11:32:02.220Z,22.75
2017-08-13T11:33:02.161Z,22.79
2017-08-13T11:34:02.141Z,23.01
2017-08-13T11:35:02.128Z,23.12
2017-08-13T11:36:02.113Z,23.21
2017-08-13T11:37:02.106Z,23.26
2017-08-13T11:38:02.087Z,23.38
2017-08-13T11:39:02.062Z,23.47
2017-08-13T11:40:02.043Z,23.54
2017-08-13T11:41:02.030Z,23.59
2017-08-13T11:42:02.016Z,23.62
2017-08-13T11:43:02.051Z,23.74
2017-08-13T11:44:01.977Z,23.71
2017-08-13T11:45:01.961Z,23.62
2017-08-13T11:46:01.955Z,23.63
2017-08-13T11:47:01.334Z,23.68
2017-08-13T11:48:01.923Z,23.68
2017-08-13T11:49:01.908Z,23.64
2017-08-13T11:50:01.901Z,23.84
2017-08-13T11:51:01.877Z,23.82
2017-08-13T11:52:01.552Z,23.84
2017-08-13T11:53:01.840Z,23.89
2017-08-13T11:54:01.823Z,23.89
2017-08-13T11:55:01.803Z,23.82
2017-08-13T11:56:01.799Z,23.78
2017-08-13T11:57:01.782Z,23.78
2017-08-13T11:58:01.758Z,23.64
2017-08-13T11:59:01.741Z,23.39
2017-08-13T12:00:01.784Z,23.5
2017-08-13T12:01:01.712Z,23.49
2017-08-13T12:02:01.694Z,23.54
2017-08-13T12:03:01.683Z,23.59
2017-08-13T12:04:01.720Z,23.59
2017-08-13T12:05:01.646Z,23.56
2017-08-13T12:06:01.643Z,23.59
2017-08-13T12:07:01.615Z,23.57
2017-08-13T12:08:01.608Z,23.67
2017-08-13T12:09:01.583Z,23.69
2017-08-13T12:10:01.571Z,23.71
2017-08-13T12:11:01.807Z,23.78
2017-08-13T12:12:01.596Z,23.78
2017-08-13T12:13:01.530Z,23.77
2017-08-13T12:14:01.509Z,23.75
2017-08-13T12:15:01.490Z,23.74
2017-08-13T12:16:01.175Z,23.68
2017-08-13T12:17:01.479Z,23.42
2017-08-13T12:18:01.447Z,23.49
2017-08-13T12:19:01.431Z,23.41
2017-08-13T12:20:01.407Z,23.44
2017-08-13T12:21:01.400Z,23.23
2017-08-13T12:22:01.377Z,23.25
2017-08-13T12:23:01.364Z,23.18
2017-08-13T12:24:01.393Z,23.19
2017-08-13T12:25:01.328Z,23.14
2017-08-13T12:26:01.334Z,23.07
2017-08-13T12:27:01.039Z,23.12
2017-08-13T12:28:01.284Z,22.94
2017-08-13T12:29:01.279Z,22.84
2017-08-13T12:30:01.252Z,22.79
2017-08-13T12:31:01.229Z,22.81
2017-08-13T12:32:01.225Z,22.88
2017-08-13T12:33:01.250Z,22.79
2017-08-13T12:34:01.187Z,22.82
2017-08-13T12:35:01.184Z,22.96
2017-08-13T12:36:01.155Z,22.97
2017-08-13T12:37:01.180Z,23.01
2017-08-13T12:38:01.114Z,23
2017-08-13T12:39:01.102Z,23.04
2017-08-13T12:40:01.077Z,23.16
2017-08-13T12:41:00.468Z,23.32
2017-08-13T12:42:01.045Z,23.26
2017-08-13T12:43:01.035Z,23.32
2017-08-13T12:44:01.006Z,23.35
2017-08-13T12:45:01.003Z,23.38
2017-08-13T12:46:00.974Z,23.38
2017-08-13T12:47:00.968Z,23.35
2017-08-13T12:48:00.946Z,23.47
2017-08-13T12:49:00.934Z,23.42
2017-08-13T12:50:01.220Z,23.44
2017-08-13T12:51:00.593Z,23.26
2017-08-13T12:52:00.625Z,23.16
2017-08-13T12:53:00.870Z,23.01
2017-08-13T12:54:00.546Z,22.82
2017-08-13T12:55:00.842Z,22.57